Alts del Cafetal, Puerto Rico
Current Conditions -  °F | °C
As of 2:50 PM on Monday 22 Dec 2014 (Local Time) from TJBQ Reporting Station
Scattered Clouds Scattered Clouds  
Wind Chill: 82°   Ceiling: Unl
Heat Index: 87°   Visibility: 10mi
Dew Point: 72°   Wind: 13mph
Humidity: 70%   Direction: 80°E
Pressure: 29.99"   Gusts: NA
Location:  18.0306°N, 66.8507°W
Report Text: TJBQ 221850Z 08011KT 10SM SCT020 28/22 A2999 RMK RWY08 ATIS Y
Loading
Personal Weather Stations






























Interactive Weather Map New forecast layout! Learn more

10-Day Weather Forecast

Advertisements
Track Severe Weather on mobile